Tiempo atmosférico en la estación meteorológica de Villamayor de los Montes, Burgos (882 m.)



Fecha
DESCASC
Temp. máxima en grados centígrados (hora)
DESCASC
Temp. mínima en grados centígrados (hora)
DESCASC
Temp. media en grados centígrados
DESCASC
Racha de viento máxima en m/sg (hora)
DESCASC
Velocidad máxima media en intervalos de 10 minutos(hora)
DESCASC
Precipitaciones diarias en mm
DESCASC
Precipitaciones de 00:00 a 06:00 en mm
DESCASC
Precipitaciones de 06:00 a 12:00 en mm
DESCASC
Precipitaciones de 12:00 a 18:00 en mm
DESCASC
Precipitaciones de 18:00 a 24:00 en mm
DESCASC
18-08-2019 29.5 (17:10) 15.6 (07:20) 22.6 11.94 (20:10) 7.78 (20:10) 0 0 0 0 0
17-08-2019 32.9 (17:50) 12.8 (07:30) 22.9 9.17 (18:10) 4.72 (16:50) 0 0 0 0 0
16-08-2019 32.1 (17:10) 12.9 (06:00) 22.5 8.06 (18:00) 3.89 (16:50) 0 0 0 0 0
15-08-2019 26.9 (16:50) 15.6 (00:00) 21.3 9.44 (18:00) 5.28 (21:10) 0 0 0 0 0
14-08-2019 29.7 (18:30) 8.9 (00:00) 19.3 7.5 (14:10) 3.89 (22:10) 0 0 0 0 0
13-08-2019 23.8 (18:30) 9.6 (00:00) 16.7 11.11 (04:10) 6.94 (01:50) 0 0 0 0 0
12-08-2019 20.9 (17:20) 8.9 (00:00) 14.9 12.78 (17:30) 7.22 (17:50) 0 0 0 0 0
11-08-2019 23.3 (18:20) 13.1 (00:00) 18.2 11.11 (21:10) 7.22 (22:00) 0.6 0.4 0.2 0 0
10-08-2019 26.7 (19:10) 12 (00:00) 19.4 10 (22:20) 6.11 (21:50) 0 0 0 0 0
09-08-2019 25 (16:20) 14.2 (00:00) 19.6 13.06 (10:10) 7.5 (18:10) 0.8 0 0 0 0.8
08-08-2019 30.6 (19:10) 17.3 (00:00) 23.9 12.5 (19:30) 6.67 (19:20) 0 0 0 0 0
07-08-2019 26.5 (14:20) 16 (00:00) 21.3 12.5 (00:30) 7.78 (00:30) 0 0 0 0 0
06-08-2019 31 (18:00) 14.3 (00:00) 22.7 10.56 (23:10) 6.67 (22:00) 0 0 0 0 0
05-08-2019 32.8 (18:30) 14.2 (00:00) 23.5 10.28 (00:20) 6.11 (21:10) 0 0 0 0 0
04-08-2019 32.1 (16:40) 15.7 (00:00) 23.9 10.28 (22:10) 5.83 (22:50) 0 0 0 0 0
03-08-2019 33.8 (17:30) 14.9 (00:00) 24.3 8.61 (14:50) 4.17 (23:20) 0 0 0 0 0
02-08-2019 30.7 (18:00) 13.5 (00:00) 22.1 11.39 (00:10) 6.39 (00:10) 0 0 0 0 0
01-08-2019 26.7 (16:10) 14.2 (00:00) 20.5 12.22 (21:10) 7.22 (20:50) 17.8 17.6 0.2 0 0
31-07-2019 25.4 (15:50) 9.8 (00:00) 17.6 10.83 (19:50) 6.39 (18:50) 0 0 0 0 0
30-07-2019 23 (17:10) 11 (00:00) 17 12.78 (22:10) 7.5 (21:10) 0 0 0 0 0
29-07-2019 26.9 (17:40) 12.2 (00:00) 19.5 12.22 (15:40) 6.39 (22:00) 0 0 0 0 0
28-07-2019 24.6 (20:10) 9 (00:00) 16.8 7.22 (12:10) 4.17 (00:30) 0 0 0 0 0
27-07-2019 17.4 (17:30) 12 (00:00) 14.7 11.11 (19:00) 7.22 (19:20) 2.4 0 0 2.4 0
26-07-2019 23.5 (13:40) 14.6 (00:00) 19.1 13.06 (20:00) 7.78 (20:20) 1.2 1.2 0 0 0
25-07-2019 33.9 (17:30) 19.5 (00:00) 26.7 10.56 (16:30) 6.11 (23:50) 0 0 0 0 0
24-07-2019 33.9 (17:00) 17.4 (00:00) 25.7 10.83 (16:10) 5.83 (00:10) 0.4 0 0 0.4 0
23-07-2019 34.2 (17:40) 17.6 (00:00) 25.9 13.61 (14:30) 7.5 (13:00) 9.4 0 5.8 0.2 3.4
22-07-2019 36.7 (16:20) 19.3 (00:00) 28 11.39 (18:30) 7.22 (18:30) 0 0 0 0 0
21-07-2019 33.1 (17:30) 16.4 (00:00) 24.7 10.56 (21:20) 6.39 (20:20) 0 0 0 0 0

Gráficas

Temp. máximas Temp. mínimas Temp. medias Precipitaciones Rachas de viento máximas Velocidades máximas media en intervalos de 10 minutos

Datos horarios

Fecha y hora oficial Temperatura (ºC) Velocidad del viento (km/h) Dirección del viento Racha (km/h) Dirección de racha Precipitación (mm) Presión (hPa) Tendencia (hPa) Humedad (%)
2019-08-19 23:00:00 14 27 Nordeste 51 Nordeste 0 -- -- 79
2019-08-19 22:00:00 14.5 29 Nordeste 51 Nordeste 0 -- -- 76
2019-08-19 21:00:00 15.3 29 Nordeste 51 Nordeste 0 -- -- 73
2019-08-19 20:00:00 15.9 28 Nordeste 48 Nordeste 0 -- -- 72
2019-08-19 19:00:00 16.7 27 Nordeste 46 Nordeste 0 -- -- 69
2019-08-19 18:00:00 17.7 28 Nordeste 46 Norte 0 -- -- 66
2019-08-19 17:00:00 18.7 25 Nordeste 45 Nordeste 0 -- -- 63
2019-08-19 16:00:00 18.4 26 Nordeste 51 Nordeste 0 -- -- 64
2019-08-19 15:00:00 18.9 26 Nordeste 42 Norte 0 -- -- 62
2019-08-19 14:00:00 18.8 24 Nordeste 42 Nordeste 0 -- -- 63
2019-08-19 13:00:00 18.8 20 Nordeste 39 Norte 0 -- -- 64
2019-08-19 12:00:00 17.2 18 Nordeste 39 Nordeste 0 -- -- 68
2019-08-19 11:00:00 15.5 24 Nordeste 39 Nordeste 0 -- -- 73
2019-08-19 10:00:00 14.8 17 Nordeste 34 Nordeste 0 -- -- 76
2019-08-19 09:00:00 13.8 18 Nordeste 33 Nordeste 0 -- -- 79
2019-08-19 08:00:00 13.1 21 Nordeste 36 Nordeste 0 -- -- 82
2019-08-19 07:00:00 13.2 14 Nordeste 36 Nordeste 0 -- -- 82
2019-08-19 06:00:00 13.1 19 Nordeste 39 Nordeste 0 -- -- 83
2019-08-19 05:00:00 13 21 Nordeste 35 Nordeste 0 -- -- 84
2019-08-19 04:00:00 13.4 19 Nordeste 36 Nordeste 0 -- -- 83
2019-08-19 03:00:00 13.6 19 Nordeste 32 Nordeste 0 -- -- 83
2019-08-19 02:00:00 14.2 23 Nordeste 40 Nordeste 0 -- -- 82
2019-08-19 01:00:00 15 22 Nordeste 40 Nordeste 0 -- -- 82
2019-08-19 00:00:00 16 21 Nordeste 42 Nordeste 0 -- -- 79
2019-08-18 23:00:00 16.8 20 Nordeste 35 Nordeste 0 -- -- 78
2019-08-18 22:00:00 17.9 18 Norte 33 Norte 0 -- -- 73
2019-08-18 21:00:00 19.1 21 Norte 43 Norte 0 -- -- 67
2019-08-18 20:00:00 23 27 Norte 41 Noroeste 0 -- -- 53
2019-08-18 19:00:00 27.8 17 Sudoeste 36 Oeste 0 -- -- 34
2019-08-18 18:00:00 28.5 15 Sudoeste 40 Sudoeste 0 -- -- 29
2019-08-18 17:00:00 29.3 14 Oeste 35 Sudoeste 0 -- -- 28
2019-08-18 16:00:00 29.2 15 Sudoeste 33 Sudoeste 0 -- -- 25
2019-08-18 15:00:00 27.9 18 Sudoeste 33 Sur 0 -- -- 27
2019-08-18 14:00:00 26.2 13 Sudoeste 32 Sudoeste 0 -- -- 32
2019-08-18 13:00:00 25.8 12 Sudoeste 22 Sudoeste 0 -- -- 35
2019-08-18 12:00:00 23.8 9 Sudoeste 23 Oeste 0 -- -- 40
2019-08-18 11:00:00 22.6 13 Sudoeste 23 Sudoeste 0 -- -- 44
2019-08-18 10:00:00 20.2 9 Sur 21 Sur 0 -- -- 49
2019-08-18 09:00:00 18 14 Sur 19 Sur 0 -- -- 51
2019-08-18 08:00:00 15.8 9 Sur 17 Sur 0 -- -- 54
2019-08-18 07:00:00 15.9 8 Sur 14 Sur 0 -- -- 54
2019-08-18 06:00:00 16 5 Sudeste 12 Sudeste 0 -- -- 51
2019-08-18 05:00:00 16.7 5 Sur 10 Sudeste 0 -- -- 47
2019-08-18 04:00:00 16.2 4 Sur 7 Sur 0 -- -- 49
2019-08-18 03:00:00 17.4 0 Calma 10 Sudeste 0 -- -- 45
2019-08-18 02:00:00 19.3 7 Sudeste 13 Sur 0 -- -- 39
2019-08-18 01:00:00 18.8 0 Calma 8 Sudoeste 0 -- -- 42
2019-08-18 00:00:00 21 4 Sur 7 Sur 0 -- -- 35
2019-08-17 23:00:00 22.9 4 Sur 7 Sur 0 -- -- 31
2019-08-17 22:00:00 25.2 3 Sudoeste 5 Sudoeste 0 -- -- 27
2019-08-17 21:00:00 28.8 4 Sudoeste 21 Sudoeste 0 -- -- 21
2019-08-17 20:00:00 31.8 11 Sudoeste 26 Sudoeste 0 -- -- 16
2019-08-17 19:00:00 32.4 14 Sudoeste 33 Sudoeste 0 -- -- 18
2019-08-17 18:00:00 32.9 12 Sudoeste 32 Oeste 0 -- -- 22
2019-08-17 17:00:00 32.5 12 Sudoeste 30 Sudoeste 0 -- -- 23
2019-08-17 16:00:00 31.8 12 Sudoeste 28 Sudoeste 0 -- -- 26
2019-08-17 15:00:00 30.7 10 Sudoeste 27 Sudoeste 0 -- -- 28
2019-08-17 14:00:00 29.2 12 Sudoeste 24 Sudoeste 0 -- -- 31
2019-08-17 13:00:00 27.5 8 Oeste 20 Oeste 0 -- -- 34
2019-08-17 12:00:00 25.6 4 Oeste 14 Oeste 0 -- -- 36
2019-08-17 11:00:00 22.9 5 Sudoeste 13 Sudoeste 0 -- -- 46
2019-08-17 10:00:00 20.5 8 Sudoeste 18 Sur 0 -- -- 51
2019-08-17 09:00:00 18.7 8 Sur 15 Sur 0 -- -- 53
2019-08-17 08:00:00 14 5 Sudeste 9 Sur 0 -- -- 66
2019-08-17 07:00:00 14 5 Sudeste 7 Sudeste 0 -- -- 66
2019-08-17 06:00:00 13.6 3 Sudoeste 5 Sur 0 -- -- 71
2019-08-17 05:00:00 14.7 2 Nordeste 10 Noroeste 0 -- -- 66
2019-08-17 04:00:00 16.3 4 Nordeste 12 Este 0 -- -- 61
2019-08-17 03:00:00 17.3 8 Este 15 Nordeste 0 -- -- 63
2019-08-17 02:00:00 17.5 5 Oeste 10 Nordeste 0 -- -- 64
2019-08-17 01:00:00 19.3 5 Nordeste 18 Este 0 -- -- 50
2019-08-17 00:00:00 21.7 10 Nordeste 16 Nordeste 0 -- -- 48
2019-08-16 23:00:00 22.7 5 Nordeste 18 Norte 0 -- -- 38
2019-08-16 22:00:00 25.8 3 Oeste 12 Noroeste 0 -- -- 32
2019-08-16 21:00:00 28.6 6 Oeste 18 Oeste 0 -- -- 28
2019-08-16 20:00:00 31.1 11 Oeste 28 Oeste 0 -- -- 28
2019-08-16 19:00:00 32 10 Oeste 26 Sudoeste 0 -- -- 26
2019-08-16 18:00:00 32 13 Oeste 29 Noroeste 0 -- -- 23
2019-08-16 17:00:00 31.9 8 Oeste 27 Sudoeste 0 -- -- 26
2019-08-16 16:00:00 31.7 11 Sudoeste 27 Sudoeste 0 -- -- 26
2019-08-16 15:00:00 30.7 7 Sudoeste 28 Sudoeste 0 -- -- 30
2019-08-16 14:00:00 29.7 8 Oeste 18 Sudoeste 0 -- -- 34
2019-08-16 13:00:00 28.6 6 Sudoeste 19 Sudoeste 0 -- -- 35
2019-08-16 12:00:00 27.1 7 Sur 15 Sur 0 -- -- 40
2019-08-16 11:00:00 24.8 6 Sur 14 Sur 0 -- -- 44
2019-08-16 10:00:00 21.2 0 Calma 12 Nordeste 0 -- -- 54
2019-08-16 09:00:00 17.2 7 Nordeste 11 Nordeste 0 -- -- 66
2019-08-16 08:00:00 13.5 5 Nordeste 12 Nordeste 0 -- -- 77
2019-08-16 07:00:00 13.3 6 Nordeste 9 Nordeste 0 -- -- 78
2019-08-16 06:00:00 12.9 5 Nordeste 8 Nordeste 0 -- -- 78
2019-08-16 05:00:00 13.7 0 Calma 8 Este 0 -- -- 74
2019-08-16 04:00:00 15.1 3 Nordeste 10 Nordeste 0 -- -- 69
2019-08-16 03:00:00 16 5 Nordeste 9 Nordeste 0 -- -- 67
2019-08-16 02:00:00 17 4 Este 13 Nordeste 0 -- -- 61
2019-08-16 01:00:00 17.9 8 Nordeste 18 Nordeste 0 -- -- 60
2019-08-16 00:00:00 18.2 12 Nordeste 19 Nordeste 0 -- -- 63
2019-08-15 23:00:00 18.2 12 Nordeste 27 Nordeste 0 -- -- 66
2019-08-15 22:00:00 19.8 16 Nordeste 33 Nordeste 0 -- -- 61
2019-08-15 21:00:00 22.4 19 Nordeste 30 Nordeste 0 -- -- 50
2019-08-15 20:00:00 24.7 18 Nordeste 32 Norte 0 -- -- 42
2019-08-15 19:00:00 25.8 16 Nordeste 32 Norte 0 -- -- 40
2019-08-15 18:00:00 26.6 17 Norte 34 Norte 0 -- -- 39
2019-08-15 17:00:00 26.7 15 Norte 29 Norte 0 -- -- 40
2019-08-15 16:00:00 26.5 14 Norte 30 Norte 0 -- -- 42
2019-08-15 15:00:00 26.3 15 Norte 28 Norte 0 -- -- 41
2019-08-15 14:00:00 25.6 10 Norte 25 Norte 0 -- -- 43
2019-08-15 13:00:00 25 11 Norte 24 Norte 0 -- -- 44
2019-08-15 12:00:00 23.9 10 Norte 18 Norte 0 -- -- 49
2019-08-15 11:00:00 22.3 3 Nordeste 16 Nordeste 0 -- -- 56
2019-08-15 10:00:00 19.6 12 Nordeste 21 Nordeste 0 -- -- 67
2019-08-15 09:00:00 17.9 12 Nordeste 19 Nordeste 0 -- -- 75
2019-08-15 08:00:00 16 9 Nordeste 19 Nordeste 0 -- -- 83
2019-08-15 07:00:00 15.7 12 Nordeste 19 Nordeste 0 -- -- 85
2019-08-15 06:00:00 16 10 Nordeste 30 Nordeste 0 -- -- 82
2019-08-15 05:00:00 16 15 Nordeste 27 Nordeste 0 -- -- 81
2019-08-15 04:00:00 16.3 16 Nordeste 28 Nordeste 0 -- -- 79
2019-08-15 03:00:00 16.4 13 Nordeste 24 Nordeste 0 -- -- 74
2019-08-15 02:00:00 17.3 13 Nordeste 23 Nordeste 0 -- -- 66
2019-08-15 01:00:00 18.1 14 Nordeste 24 Nordeste 0 -- -- 63
2019-08-15 00:00:00 19 13 Nordeste 21 Nordeste 0 -- -- 61
2019-08-14 23:00:00 20.5 13 Nordeste 23 Nordeste 0 -- -- 56
2019-08-14 22:00:00 23.3 14 Nordeste 21 Nordeste 0 -- -- 47
2019-08-14 21:00:00 26.9 4 Oeste 15 Noroeste 0 -- -- 33
2019-08-14 20:00:00 28.4 7 Norte 21 Noroeste 0 -- -- 30
2019-08-14 19:00:00 29.4 8 Noroeste 20 Noroeste 0 -- -- 29
2019-08-14 18:00:00 29.4 6 Norte 22 Sudoeste 0 -- -- 29
2019-08-14 17:00:00 29.5 6 Oeste 20 Sudoeste 0 -- -- 27
2019-08-14 16:00:00 28.4 9 Noroeste 19 Noroeste 0 -- -- 27
2019-08-14 15:00:00 27.2 10 Oeste 27 Noroeste 0 -- -- 28
2019-08-14 14:00:00 26.3 9 Oeste 22 Noroeste 0 -- -- 26
2019-08-14 13:00:00 25.1 9 Noroeste 23 Oeste 0 -- -- 29
2019-08-14 12:00:00 23.4 8 Oeste 19 Sudoeste 0 -- -- 30
2019-08-14 11:00:00 21.2 8 Sudoeste 18 Sur 0 -- -- 38
2019-08-14 10:00:00 17.2 2 Oeste 5 Noroeste 0 -- -- 55
2019-08-14 09:00:00 12.5 3 Sudoeste 6 Sudoeste 0 -- -- 69
2019-08-14 08:00:00 9.9 2 Nordeste 9 Este 0 -- -- 75
2019-08-14 07:00:00 8.9 2 Este 4 Sudeste 0 -- -- 78
2019-08-14 06:00:00 9.9 0 Calma 8 Este 0 -- -- 73
2019-08-14 05:00:00 9.4 4 Nordeste 5 Nordeste 0 -- -- 76
2019-08-14 04:00:00 10.8 3 Este 10 Sudeste 0 -- -- 70
2019-08-14 03:00:00 11.5 3 Este 5 Norte 0 -- -- 68
2019-08-14 02:00:00 12.2 0 Calma 8 Nordeste 0 -- -- 65
2019-08-14 01:00:00 13.4 2 Norte 9 Este 0 -- -- 62
2019-08-14 00:00:00 15.9 10 Este 14 Este 0 -- -- 54
2019-08-13 23:00:00 17.2 8 Este 15 Este 0 -- -- 52
2019-08-13 22:00:00 18.9 8 Este 18 Nordeste 0 -- -- 45
2019-08-13 21:00:00 21 10 Nordeste 23 Norte 0 -- -- 38
2019-08-13 20:00:00 22.9 12 Norte 28 Nordeste 0 -- -- 33
2019-08-13 19:00:00 23.5 14 Norte 25 Norte 0 -- -- 32
2019-08-13 18:00:00 23.5 10 Norte 26 Norte 0 -- -- 30
2019-08-13 17:00:00 23.4 14 Norte 31 Norte 0 -- -- 31
2019-08-13 16:00:00 22.9 12 Noroeste 25 Norte 0 -- -- 27
2019-08-13 15:00:00 21.8 9 Norte 25 Norte 0 -- -- 26
2019-08-13 14:00:00 20.4 12 Norte 24 Norte 0 -- -- 37
2019-08-13 13:00:00 19.1 13 Norte 26 Norte 0 -- -- 42
2019-08-13 12:00:00 17.8 10 Nordeste 23 Norte 0 -- -- 44
2019-08-13 11:00:00 16.1 10 Nordeste 22 Nordeste 0 -- -- 49
2019-08-13 10:00:00 14 14 Nordeste 23 Nordeste 0 -- -- 57
2019-08-13 09:00:00 11.9 7 Nordeste 15 Este 0 -- -- 65
2019-08-13 08:00:00 9.7 8 Nordeste 14 Nordeste 0 -- -- 72
2019-08-13 07:00:00 10.4 8 Nordeste 13 Norte 0 -- -- 67
2019-08-13 06:00:00 11.6 5 Nordeste 27 Nordeste 0 -- -- 61
2019-08-13 05:00:00 12.2 16 Nordeste 40 Nordeste 0 -- -- 58
2019-08-13 04:00:00 11.4 15 Nordeste 30 Nordeste 0 -- -- 69
2019-08-13 03:00:00 11.5 18 Nordeste 36 Nordeste 0 -- -- 74
2019-08-13 02:00:00 11.5 24 Nordeste 39 Norte 0 -- -- 75
2019-08-13 01:00:00 11.6 23 Nordeste 37 Nordeste 0 -- -- 77
2019-08-13 00:00:00 12.2 20 Nordeste 41 Norte 0 -- -- 73
2019-08-12 23:00:00 13.4 22 Nordeste 39 Nordeste 0 -- -- 67
2019-08-12 22:00:00 14.3 22 Nordeste 40 Nordeste 0 -- -- 66
2019-08-12 21:00:00 15.7 22 Nordeste 38 Nordeste 0 -- -- 58
2019-08-12 20:00:00 18 21 Nordeste 37 Nordeste 0 -- -- 47
2019-08-12 19:00:00 18.8 21 Norte 42 Norte 0 -- -- 41
2019-08-12 18:00:00 20.4 19 Norte 46 Norte 0 -- -- 38
2019-08-12 17:00:00 20.6 19 Norte 41 Norte 0 -- -- 35
2019-08-12 16:00:00 20.4 21 Norte 41 Norte 0 -- -- 36
2019-08-12 15:00:00 19.8 18 Norte 37 Norte 0 -- -- 36
2019-08-12 14:00:00 18.9 19 Norte 37 Norte 0 -- -- 39
2019-08-12 13:00:00 17.8 19 Nordeste 35 Nordeste 0 -- -- 45
2019-08-12 12:00:00 16.6 16 Nordeste 31 Nordeste 0 -- -- 50
2019-08-12 11:00:00 15.1 19 Norte 31 Norte 0 -- -- 57
2019-08-12 10:00:00 13.4 19 Norte 31 Norte 0 -- -- 62
2019-08-12 09:00:00 11.6 15 Norte 24 Nordeste 0 -- -- 72
2019-08-12 08:00:00 9.1 10 Norte 19 Norte 0 -- -- 82
2019-08-12 07:00:00 9.2 14 Norte 31 Norte 0 -- -- 83
2019-08-12 06:00:00 9.3 13 Norte 24 Nordeste 0 -- -- 84
2019-08-12 05:00:00 9.9 15 Nordeste 24 Nordeste 0 -- -- 83
2019-08-12 04:00:00 10.7 13 Norte 29 Nordeste 0 -- -- 83
2019-08-12 03:00:00 11.2 16 Nordeste 32 Nordeste 0 -- -- 81
2019-08-12 02:00:00 11.6 19 Norte 37 Nordeste 0 -- -- 78
2019-08-12 01:00:00 11.9 23 Norte 37 Norte 0 -- -- 76
2019-08-12 00:00:00 13.1 18 Norte 35 Nordeste 0 -- -- 78
2019-08-11 23:00:00 13.6 18 Nordeste 33 Nordeste 0 -- -- 78
2019-08-11 22:00:00 14.8 26 Norte 40 Nordeste 0 -- -- 74
2019-08-11 21:00:00 17.3 22 Nordeste 37 Norte 0 -- -- 65
2019-08-11 20:00:00 22.1 10 Noroeste 22 Nordeste 0 -- -- 46
2019-08-11 19:00:00 22.7 11 Noroeste 27 Noroeste 0 -- -- 33
2019-08-11 18:00:00 22.5 8 Oeste 30 Oeste 0 -- -- 38
2019-08-11 17:00:00 22.5 10 Oeste 30 Sudoeste 0 -- -- 40
2019-08-11 16:00:00 22.4 12 Oeste 26 Oeste 0 -- -- 43
2019-08-11 15:00:00 21.5 9 Oeste 26 Noroeste 0 -- -- 49
2019-08-11 14:00:00 21.1 9 Noroeste 22 Oeste 0 -- -- 50
2019-08-11 13:00:00 20.7 8 Noroeste 22 Noroeste 0 -- -- 51
2019-08-11 12:00:00 20.1 7 Oeste 15 Noroeste 0 -- -- 54
2019-08-11 11:00:00 18.8 4 Noroeste 11 Sur 0 -- -- 57
2019-08-11 10:00:00 17.6 4 Nordeste 8 Este 0 -- -- 65
2019-08-11 09:00:00 15.2 2 Sudeste 13 Este 0 -- -- 83
2019-08-11 08:00:00 13.7 8 Nordeste 18 Nordeste 0 -- -- 87
2019-08-11 07:00:00 13.5 13 Nordeste 22 Nordeste 0.2 -- -- 89
2019-08-11 06:00:00 13.5 9 Nordeste 24 Norte 0.2 -- -- 89
2019-08-11 05:00:00 13.7 17 Norte 35 Norte 0 -- -- 87
2019-08-11 04:00:00 14.6 22 Noroeste 33 Noroeste 0.2 -- -- 85
2019-08-11 03:00:00 15.2 10 Nordeste 27 Nordeste 0 -- -- 80
2019-08-11 02:00:00 15.3 16 Nordeste 30 Nordeste 0 -- -- 79
2019-08-11 01:00:00 15.5 19 Nordeste 32 Nordeste 0 -- -- 76
2019-08-11 00:00:00 16.2 18 Nordeste 36 Nordeste 0 -- -- 72
2019-08-10 23:00:00 17.2 17 Nordeste 36 Nordeste 0 -- -- 68
2019-08-10 22:00:00 19 21 Nordeste 36 Norte 0 -- -- 63
2019-08-10 21:00:00 23.8 9 Noroeste 18 Noroeste 0 -- -- 34
2019-08-10 20:00:00 26.1 6 Oeste 17 Sudoeste 0 -- -- 30
2019-08-10 19:00:00 26.6 10 Sudoeste 24 Sur 0 -- -- 31
2019-08-10 18:00:00 26.2 12 Sur 24 Sudoeste 0 -- -- 32
2019-08-10 17:00:00 25.6 7 Sudoeste 23 Sudoeste 0 -- -- 33
2019-08-10 16:00:00 24.5 10 Oeste 27 Sudoeste 0 -- -- 37
2019-08-10 15:00:00 23.6 10 Sudoeste 27 Sur 0 -- -- 43
2019-08-10 14:00:00 22 7 Este 21 Sur 0 -- -- 49
2019-08-10 13:00:00 20.7 8 Sur 20 Sur 0 -- -- 51
2019-08-10 12:00:00 18.8 5 Sudoeste 13 Sudoeste 0 -- -- 61
2019-08-10 11:00:00 16.5 3 Oeste 9 Sur 0 -- -- 77
2019-08-10 10:00:00 14.6 6 Sudoeste 12 Sudoeste 0 -- -- 87
2019-08-10 09:00:00 13.6 6 Sudoeste 10 Sudoeste 0 -- -- 93
2019-08-10 08:00:00 13.2 6 Sur 13 Sur 0 -- -- 95
2019-08-10 07:00:00 13.1 8 Sur 12 Sur 0 -- -- 95
2019-08-10 06:00:00 12.3 6 Sur 9 Sur 0 -- -- 94
2019-08-10 05:00:00 12.7 3 Sur 10 Sudeste 0 -- -- 93
2019-08-10 04:00:00 13.5 4 Sudeste 14 Sur 0 -- -- 92
2019-08-10 03:00:00 14.2 10 Sur 15 Sudoeste 0 -- -- 92
2019-08-10 02:00:00 13.9 10 Sur 13 Sur 0 -- -- 92
2019-08-10 01:00:00 14.2 8 Sur 19 Sur 0 -- -- 91
2019-08-10 00:00:00 14.2 15 Sur 24 Sur 0 -- -- 90
2019-08-09 23:00:00 14.5 12 Sur 26 Sur 0 -- -- 89
2019-08-09 22:00:00 14.5 9 Sur 32 Sur 0 -- -- 84
2019-08-09 21:00:00 15.4 23 Sur 36 Sur 0 -- -- 83
2019-08-09 20:00:00 16.9 22 Sur 35 Oeste 0.8 -- -- 79
2019-08-09 19:00:00 21.7 14 Sudoeste 41 Sudoeste 0 -- -- 63
2019-08-09 18:00:00 24.5 20 Sudoeste 40 Sudoeste 0 -- -- 42
2019-08-09 17:00:00 25 23 Sudoeste 45 Oeste 0 -- -- 51
2019-08-09 16:00:00 24.2 19 Sudoeste 46 Sudoeste 0 -- -- 59
2019-08-09 15:00:00 24.4 22 Sudoeste 42 Oeste 0 -- -- 60
2019-08-09 14:00:00 21.1 7 Oeste 30 Oeste 0 -- -- 74
2019-08-09 13:00:00 20.5 11 Sudoeste 27 Oeste 0 -- -- 76
2019-08-09 12:00:00 19.8 16 Oeste 41 Sudoeste 0 -- -- 79
2019-08-09 11:00:00 21.8 24 Sudoeste 47 Sur 0 -- -- 69
2019-08-09 10:00:00 21.5 22 Sudoeste 39 Sudoeste 0 -- -- 67
2019-08-09 09:00:00 20.5 18 Sudoeste 31 Sur 0 -- -- 69
2019-08-09 08:00:00 18.5 18 Sur 32 Sur 0 -- -- 76
2019-08-09 07:00:00 18.6 21 Sur 30 Sur 0 -- -- 74
2019-08-09 06:00:00 18.4 15 Sur 28 Sudoeste 0 -- -- 73
2019-08-09 05:00:00 19.2 15 Sur 22 Sur 0 -- -- 70
2019-08-09 04:00:00 19.1 12 Sur 17 Sudoeste 0 -- -- 68
2019-08-09 03:00:00 19.8 14 Sur 21 Sudoeste 0 -- -- 64
2019-08-09 02:00:00 21.3 14 Sudoeste 22 Sudoeste 0 -- -- 60
2019-08-09 01:00:00 22.4 12 Sudoeste 23 Sudoeste 0 -- -- 56
2019-08-09 00:00:00 22.5 10 Sudoeste 18 Sudoeste -- -- -- 54
2019-08-08 23:00:00 23.9 10 Sudoeste 17 Sudoeste 0 -- -- 50
2019-08-08 22:00:00 25.6 10 Sudoeste 33 Oeste 0 -- -- 46
2019-08-08 21:00:00 28 15 Sudoeste 35 Sudoeste 0 -- -- 40
2019-08-08 20:00:00 29.7 22 Sudoeste 45 Sudoeste 0 -- -- 36
2019-08-08 19:00:00 30.5 21 Sudoeste 38 Sudoeste 0 -- -- 35
2019-08-08 18:00:00 29.3 22 Sudoeste 39 Sudoeste 0 -- -- 41
2019-08-08 17:00:00 28.3 13 Sudoeste 32 Sudoeste 0 -- -- 44
2019-08-08 16:00:00 27.8 16 Sudoeste 35 Sudoeste 0 -- -- 46
2019-08-08 15:00:00 26.9 14 Sudoeste 24 Sudoeste 0 -- -- 50
2019-08-08 14:00:00 24.7 7 Oeste 22 Sudoeste 0 -- -- 57
2019-08-08 13:00:00 23.5 14 Oeste 31 Sudoeste 0 -- -- 61
2019-08-08 12:00:00 23.4 16 Sudoeste 29 Sudoeste 0 -- -- 58
2019-08-08 11:00:00 21.6 14 Sudoeste 32 Sudoeste 0 -- -- 62
2019-08-08 10:00:00 20.8 21 Sudoeste 31 Sudoeste 0 -- -- 65
2019-08-08 09:00:00 18.9 16 Sur 27 Sur 0 -- -- 70
2019-08-08 08:00:00 18.1 13 Sur 20 Sur 0 -- -- 72
2019-08-08 07:00:00 17.9 15 Sur 20 Sur 0 -- -- 73
2019-08-08 06:00:00 18.2 7 Sur 13 Sur 0 -- -- 72
2019-08-08 05:00:00 18.1 8 Sur 11 Sur 0 -- -- 74
2019-08-08 04:00:00 17.8 9 Sur 13 Sur 0 -- -- 75
2019-08-08 03:00:00 17.5 8 Sur 14 Sur 0 -- -- 77
2019-08-08 02:00:00 17.8 6 Sur 10 Sur 0 -- -- 75
2019-08-08 01:00:00 17.7 4 Este 6 Este 0 -- -- 75
2019-08-08 00:00:00 18.1 3 Oeste 8 Noroeste 0 -- -- 73
2019-08-07 23:00:00 19.1 6 Noroeste 23 Noroeste 0 -- -- 73
2019-08-07 22:00:00 20.5 5 Noroeste 19 Norte 0 -- -- 64
2019-08-07 21:00:00 21.8 7 Noroeste 20 Noroeste 0 -- -- 55
2019-08-07 20:00:00 23.2 6 Noroeste 17 Noroeste 0 -- -- 47
2019-08-07 19:00:00 23.9 8 Noroeste 16 Noroeste 0 -- -- 45
2019-08-07 18:00:00 24 5 Oeste 34 Oeste 0 -- -- 48
2019-08-07 17:00:00 23 22 Oeste 43 Oeste 0 -- -- 52
2019-08-07 16:00:00 25.6 11 Oeste 39 Sudoeste 0 -- -- 35
2019-08-07 15:00:00 26 14 Sudoeste 33 Sudoeste 0 -- -- 37
2019-08-07 14:00:00 25.9 19 Sudoeste 30 Sur 0 -- -- 38
2019-08-07 13:00:00 24.6 9 Sur 20 Sur 0 -- -- 46
2019-08-07 12:00:00 23.6 5 Sudoeste 16 Sudoeste 0 -- -- 50
2019-08-07 11:00:00 22 4 Noroeste 10 Oeste 0 -- -- 60
2019-08-07 10:00:00 19.6 3 Noroeste 6 Nordeste 0 -- -- 68
2019-08-07 09:00:00 18.2 3 Nordeste 8 Nordeste 0 -- -- 75
2019-08-07 08:00:00 16.2 3 Norte 6 Norte 0 -- -- 83
2019-08-07 07:00:00 16.1 4 Noroeste 9 Noroeste 0 -- -- 82
2019-08-07 06:00:00 16.8 6 Norte 10 Noroeste 0 -- -- 79
2019-08-07 05:00:00 17.5 5 Noroeste 9 Noroeste 0 -- -- 75
2019-08-07 04:00:00 18.3 3 Noroeste 12 Este 0 -- -- 71
2019-08-07 03:00:00 18.4 5 Norte 31 Nordeste 0 -- -- 70
2019-08-07 02:00:00 18 16 Nordeste 33 Nordeste 0 -- -- 73
2019-08-07 01:00:00 18 26 Norte 45 Norte 0 -- -- 77
2019-08-07 00:00:00 18.8 24 Norte 38 Norte 0 -- -- 75
2019-08-06 23:00:00 21 20 Nordeste 37 Nordeste 0 -- -- 68
2019-08-06 22:00:00 22.8 24 Norte 35 Norte 0 -- -- 62
2019-08-06 21:00:00 26.7 12 Noroeste 19 Noroeste 0 -- -- 35
2019-08-06 20:00:00 28.4 8 Noroeste 22 Oeste 0 -- -- 35
2019-08-06 19:00:00 29.6 10 Oeste 22 Sudoeste 0 -- -- 30
2019-08-06 18:00:00 31 6 Noroeste 23 Oeste 0 -- -- 30
2019-08-06 17:00:00 30.1 9 Oeste 28 Sudoeste 0 -- -- 32
2019-08-06 16:00:00 30.2 10 Oeste 24 Sudoeste 0 -- -- 32
2019-08-06 15:00:00 29.8 9 Oeste 24 Sudoeste 0 -- -- 33
2019-08-06 14:00:00 28.5 12 Sudoeste 22 Oeste 0 -- -- 38
2019-08-06 13:00:00 26.7 8 Oeste 28 Sur 0 -- -- 45
2019-08-06 12:00:00 25.6 11 Sudoeste 21 Sudoeste 0 -- -- 48
2019-08-06 11:00:00 22.9 9 Sur 16 Sur 0 -- -- 57
2019-08-06 10:00:00 20.9 10 Sudoeste 17 Sur 0 -- -- 63
2019-08-06 09:00:00 18.4 3 Sur 10 Sur 0 -- -- 75
2019-08-06 08:00:00 15 3 Sudeste 10 Sur 0 -- -- 88
2019-08-06 07:00:00 14.6 0 Calma 13 Este 0 -- -- 86
2019-08-06 06:00:00 15.1 8 Nordeste 13 Nordeste 0 -- -- 85
2019-08-06 05:00:00 15.9 4 Oeste 13 Este 0 -- -- 85
2019-08-06 04:00:00 16.8 8 Nordeste 11 Nordeste 0 -- -- 83
2019-08-06 03:00:00 17.3 4 Norte 17 Nordeste 0 -- -- 80
2019-08-06 02:00:00 18.4 10 Nordeste 23 Nordeste 0 -- -- 75
2019-08-06 01:00:00 19.4 15 Nordeste 27 Nordeste 0 -- -- 71
2019-08-06 00:00:00 20.3 14 Nordeste 27 Nordeste 0 -- -- 70
2019-08-05 23:00:00 21.8 14 Norte 27 Nordeste 0 -- -- 64
2019-08-05 22:00:00 23.6 18 Nordeste 33 Norte 0 -- -- 58
2019-08-05 21:00:00 28.3 18 Norte 28 Norte 0 -- -- 44
2019-08-05 20:00:00 32 6 Oeste 23 Oeste 0 -- -- 21
2019-08-05 19:00:00 32.5 10 Sudoeste 23 Sudoeste 0 -- -- 19
2019-08-05 18:00:00 32.5 7 Oeste 30 Sur 0 -- -- 21
2019-08-05 17:00:00 32.1 11 Sudoeste 30 Sur 0 -- -- 21
2019-08-05 16:00:00 31.8 11 Sudoeste 26 Sudoeste 0 -- -- 22
2019-08-05 15:00:00 30.7 8 Sudoeste 23 Oeste 0 -- -- 29
2019-08-05 14:00:00 29.4 7 Sudoeste 20 Sudoeste 0 -- -- 35
2019-08-05 13:00:00 28 6 Noroeste 16 Oeste 0 -- -- 41
2019-08-05 12:00:00 26.1 6 Sur 12 Sur 0 -- -- 45
2019-08-05 11:00:00 23.3 6 Sudoeste 12 Sur 0 -- -- 55
2019-08-05 10:00:00 20.1 0 Calma 7 Nordeste 0 -- -- 71
2019-08-05 09:00:00 17.1 4 Nordeste 6 Norte 0 -- -- 82
2019-08-05 08:00:00 14.6 3 Nordeste 5 Nordeste 0 -- -- 90
2019-08-05 07:00:00 14.4 2 Nordeste 6 Nordeste 0 -- -- 89
2019-08-05 06:00:00 15 5 Nordeste 8 Nordeste 0 -- -- 89
2019-08-05 05:00:00 15.4 5 Nordeste 13 Nordeste 0 -- -- 87
2019-08-05 04:00:00 15.8 9 Nordeste 17 Nordeste 0 -- -- 85
2019-08-05 03:00:00 16.2 12 Nordeste 27 Nordeste 0 -- -- 84
2019-08-05 02:00:00 16.7 18 Nordeste 30 Nordeste 0 -- -- 84
2019-08-05 01:00:00 17.2 19 Nordeste 37 Nordeste 0 -- -- 83
2019-08-05 00:00:00 18.7 17 Norte 33 Nordeste 0 -- -- 78
2019-08-04 23:00:00 20.4 19 Nordeste 37 Nordeste 0 -- -- 73
2019-08-04 22:00:00 24.7 11 Nordeste 23 Nordeste 0 -- -- 59
2019-08-04 21:00:00 28.9 8 Norte 26 Oeste 0 -- -- 34
2019-08-04 20:00:00 31.5 8 Oeste 21 Oeste 0 -- -- 28
2019-08-04 19:00:00 32 7 Noroeste 28 Noroeste 0 -- -- 27
2019-08-04 18:00:00 31.7 11 Oeste 23 Oeste 0 -- -- 29
2019-08-04 17:00:00 31.4 11 Sudoeste 31 Oeste 0 -- -- 30
2019-08-04 16:00:00 31.3 9 Sudoeste 23 Sudoeste 0 -- -- 32
2019-08-04 15:00:00 30.6 9 Oeste 28 Sudeste 0 -- -- 35
2019-08-04 14:00:00 28.9 6 Oeste 14 Sur 0 -- -- 40
2019-08-04 13:00:00 27.2 6 Sudoeste 15 Sur 0 -- -- 47
2019-08-04 12:00:00 24.6 5 Oeste 13 Sur 0 -- -- 51
2019-08-04 11:00:00 22.6 7 Sur 15 Sudeste 0 -- -- 57
2019-08-04 10:00:00 20.5 7 Sur 13 Sur 0 -- -- 64
2019-08-04 09:00:00 18.2 3 Norte 10 Nordeste 0 -- -- 80
2019-08-04 08:00:00 16 5 Nordeste 12 Este 0 -- -- 87
2019-08-04 07:00:00 15.9 8 Nordeste 15 Nordeste 0 -- -- 88
2019-08-04 06:00:00 16.2 10 Nordeste 21 Nordeste 0 -- -- 89
2019-08-04 05:00:00 16.6 13 Nordeste 21 Nordeste 0 -- -- 88
2019-08-04 04:00:00 17.4 12 Nordeste 19 Nordeste 0 -- -- 85
2019-08-04 03:00:00 18.2 12 Nordeste 17 Nordeste 0 -- -- 81
2019-08-04 02:00:00 19.2 10 Nordeste 19 Nordeste 0 -- -- 77
2019-08-04 01:00:00 20.4 13 Nordeste 21 Nordeste 0 -- -- 74
2019-08-04 00:00:00 21.8 11 Nordeste 27 Nordeste 0 -- -- 69
2019-08-03 23:00:00 23.5 13 Nordeste 22 Nordeste 0 -- -- 63
2019-08-03 22:00:00 26.1 10 Nordeste 21 Nordeste 0 -- -- 43
2019-08-03 21:00:00 28.7 10 Nordeste 22 Nordeste 0 -- -- 38
2019-08-03 20:00:00 30.5 12 Nordeste 18 Nordeste 0 -- -- 34
2019-08-03 19:00:00 32.6 4 Norte 15 Noroeste 0 -- -- 25
2019-08-03 18:00:00 32.9 8 Norte 21 Norte 0 -- -- 23
2019-08-03 17:00:00 33.4 9 Oeste 24 Sudoeste 0 -- -- 22
2019-08-03 16:00:00 32.7 9 Norte 19 Sudoeste 0 -- -- 25
2019-08-03 15:00:00 32.3 10 Sudoeste 31 Sudoeste 0 -- -- 24
2019-08-03 14:00:00 31.8 7 Sudoeste 13 Sudoeste 0 -- -- 25
2019-08-03 13:00:00 30.2 5 Sudoeste 14 Sur 0 -- -- 30
2019-08-03 12:00:00 28.4 4 Sur 15 Sudeste 0 -- -- 34
2019-08-03 11:00:00 26.7 8 Sudeste 19 Sudeste 0 -- -- 39
2019-08-03 10:00:00 23.8 9 Sudeste 19 Sudeste 0 -- -- 44
2019-08-03 09:00:00 18 3 Nordeste 5 Nordeste 0 -- -- 72
2019-08-03 08:00:00 15.5 2 Norte 10 Nordeste 0 -- -- 75
2019-08-03 07:00:00 15.3 8 Nordeste 13 Este 0 -- -- 74
2019-08-03 06:00:00 15.6 8 Nordeste 12 Nordeste 0 -- -- 74
2019-08-03 05:00:00 15.5 4 Nordeste 8 Nordeste 0 -- -- 78
2019-08-03 04:00:00 16.7 6 Nordeste 11 Nordeste 0 -- -- 73
2019-08-03 03:00:00 17.3 6 Nordeste 9 Nordeste 0 -- -- 72
2019-08-03 02:00:00 17.7 4 Nordeste 9 Nordeste 0 -- -- 72
2019-08-03 01:00:00 18.5 3 Nordeste 8 Nordeste 0 -- -- 70
2019-08-03 00:00:00 20.2 6 Nordeste 20 Nordeste 0 -- -- 64
2019-08-02 23:00:00 21.5 14 Nordeste 24 Nordeste 0 -- -- 62
2019-08-02 22:00:00 23.2 14 Nordeste 28 Este 0 -- -- 55
2019-08-02 21:00:00 25.5 18 Nordeste 31 Nordeste 0 -- -- 46
2019-08-02 20:00:00 28.4 17 Nordeste 28 Nordeste 0 -- -- 38
2019-08-02 19:00:00 29.5 13 Nordeste 23 Nordeste 0 -- -- 32
2019-08-02 18:00:00 30.7 7 Norte 20 Norte 0 -- -- 26
2019-08-02 17:00:00 30.2 4 Noroeste 25 Noroeste 0 -- -- 26
2019-08-02 16:00:00 29.5 9 Noroeste 22 Noroeste 0 -- -- 28
2019-08-02 15:00:00 28.4 5 Norte 15 Noroeste 0 -- -- 31
2019-08-02 14:00:00 27.5 3 Nordeste 13 Noroeste 0 -- -- 41
2019-08-02 13:00:00 26 4 Norte 13 Norte 0 -- -- 50
2019-08-02 12:00:00 23.5 6 Norte 14 Norte 0 -- -- 58
2019-08-02 11:00:00 21.1 6 Nordeste 12 Norte 0 -- -- 66
2019-08-02 10:00:00 18.3 7 Norte 12 Norte 0 -- -- 74
2019-08-02 09:00:00 16.1 6 Nordeste 10 Nordeste 0 -- -- 83
2019-08-02 08:00:00 14 3 Nordeste 14 Este 0 -- -- 91
2019-08-02 07:00:00 13.7 6 Nordeste 14 Nordeste 0 -- -- 91
2019-08-02 06:00:00 13.9 9 Nordeste 23 Nordeste 0 -- -- 92
2019-08-02 05:00:00 14.2 12 Nordeste 22 Nordeste 0 -- -- 92
2019-08-02 04:00:00 14.3 9 Nordeste 16 Norte 0 -- -- 92
2019-08-02 03:00:00 14.7 14 Nordeste 28 Nordeste 0 -- -- 91
2019-08-02 02:00:00 15.1 15 Nordeste 31 Nordeste 0 -- -- 89
2019-08-02 01:00:00 15.6 19 Nordeste 41 Nordeste 0 -- -- 87
2019-08-02 00:00:00 16.1 18 Nordeste 39 Nordeste 0 -- -- 88
2019-08-01 23:00:00 17.1 17 Nordeste 39 Nordeste 0 -- -- 85
2019-08-01 22:00:00 18.4 21 Nordeste 44 Norte 0 -- -- 81
2019-08-01 21:00:00 20.8 22 Nordeste 41 Nordeste 0 -- -- 73
2019-08-01 20:00:00 23 22 Nordeste 35 Nordeste 0 -- -- 63
2019-08-01 19:00:00 24.9 18 Nordeste 36 Nordeste 0 -- -- 57
2019-08-01 18:00:00 25.7 21 Norte 31 Norte 0 -- -- 55
2019-08-01 17:00:00 25.8 19 Norte 30 Nordeste 0 -- -- 56
2019-08-01 16:00:00 26.4 12 Norte 23 Norte 0 -- -- 53
2019-08-01 15:00:00 25.7 11 Norte 23 Norte 0 -- -- 58
2019-08-01 14:00:00 24.9 8 Norte 18 Noroeste 0 -- -- 62
2019-08-01 13:00:00 23.9 11 Norte 20 Noroeste 0 -- -- 67
2019-08-01 12:00:00 22.1 10 Norte 32 Nordeste 0 -- -- 75
2019-08-01 11:00:00 19.5 11 Nordeste 19 Norte 0 -- -- 84
2019-08-01 10:00:00 17.8 10 Norte 17 Norte 0 -- -- 88
2019-08-01 09:00:00 15.8 8 Nordeste 15 Nordeste 0 -- -- 92
2019-08-01 08:00:00 14.9 9 Nordeste 13 Nordeste 0 -- -- 93
2019-08-01 07:00:00 15.4 3 Nordeste 22 Este 0.2 -- -- 91
2019-08-01 06:00:00 15 13 Este 24 Nordeste 5 -- -- 93
2019-08-01 05:00:00 14.4 15 Nordeste 24 Nordeste 0 -- -- 92
2019-08-01 04:00:00 14.5 12 Nordeste 27 Nordeste 12.6 -- -- 92
2019-08-01 03:00:00 15.3 13 Nordeste 26 Nordeste 0 -- -- 79
2019-08-01 02:00:00 15.3 17 Nordeste 29 Nordeste 0 -- -- 78
2019-08-01 01:00:00 16 17 Nordeste 31 Nordeste 0 -- -- 74
2019-08-01 00:00:00 17 13 Nordeste 21 Norte 0 -- -- 68
2019-07-31 23:00:00 18.4 13 Nordeste 26 Nordeste 0 -- -- 62
2019-07-31 22:00:00 19.6 16 Nordeste 32 Nordeste 0 -- -- 57
2019-07-31 21:00:00 21.3 20 Nordeste 36 Nordeste 0 -- -- 47
2019-07-31 20:00:00 22.5 19 Nordeste 39 Nordeste 0 -- -- 43
2019-07-31 19:00:00 23.9 23 Nordeste 37 Nordeste 0 -- -- 41
2019-07-31 18:00:00 25 21 Norte 35 Norte 0 -- -- 41
2019-07-31 17:00:00 25 22 Norte 33 Norte 0 -- -- 41
2019-07-31 16:00:00 25.2 19 Norte 30 Norte 0 -- -- 40
2019-07-31 15:00:00 24.6 15 Nordeste 29 Nordeste 0 -- -- 41
2019-07-31 14:00:00 23.8 17 Nordeste 33 Norte 0 -- -- 41
2019-07-31 13:00:00 22.5 16 Norte 29 Norte 0 -- -- 42
2019-07-31 12:00:00 20.5 17 Norte 31 Norte 0 -- -- 48
2019-07-31 11:00:00 18.6 15 Nordeste 24 Norte 0 -- -- 52
2019-07-31 10:00:00 15.3 9 Norte 15 Norte 0 -- -- 63
2019-07-31 09:00:00 11.7 5 Nordeste 8 Nordeste 0 -- -- 77
2019-07-31 08:00:00 10.4 4 Nordeste 10 Nordeste 0 -- -- 80
2019-07-31 07:00:00 9.8 6 Nordeste 15 Nordeste 0 -- -- 82
2019-07-31 06:00:00 9.9 9 Nordeste 14 Nordeste 0 -- -- 81
2019-07-31 05:00:00 10.5 8 Nordeste 22 Nordeste 0 -- -- 79
2019-07-31 04:00:00 10.5 10 Nordeste 24 Nordeste 0 -- -- 79
2019-07-31 03:00:00 11 12 Nordeste 25 Norte 0 -- -- 78
2019-07-31 02:00:00 11.4 15 Nordeste 27 Nordeste 0 -- -- 77
2019-07-31 01:00:00 12.2 15 Nordeste 27 Nordeste 0 -- -- 76
2019-07-31 00:00:00 13.1 16 Nordeste 42 Nordeste 0 -- -- 72
2019-07-30 23:00:00 14 21 Nordeste 46 Nordeste 0 -- -- 69
2019-07-30 22:00:00 15.7 21 Nordeste 42 Nordeste 0 -- -- 61
2019-07-30 21:00:00 18.2 26 Nordeste 42 Nordeste 0 -- -- 51
2019-07-30 20:00:00 20.5 22 Nordeste 39 Nordeste 0 -- -- 41
2019-07-30 19:00:00 21.8 20 Nordeste 35 Norte 0 -- -- 36
2019-07-30 18:00:00 22.7 19 Norte 34 Norte 0 -- -- 32
2019-07-30 17:00:00 22.6 17 Norte 37 Norte 0 -- -- 33
2019-07-30 16:00:00 22.1 17 Norte 35 Norte 0 -- -- 35
2019-07-30 15:00:00 21.1 15 Norte 35 Norte 0 -- -- 40
2019-07-30 14:00:00 19.7 13 Norte 29 Norte 0 -- -- 44
2019-07-30 13:00:00 18.6 12 Nordeste 27 Norte 0 -- -- 49
2019-07-30 12:00:00 18.1 12 Nordeste 28 Norte 0 -- -- 52
2019-07-30 11:00:00 16.5 18 Norte 29 Norte 0 -- -- 61
2019-07-30 10:00:00 15.6 15 Nordeste 27 Nordeste 0 -- -- 68
2019-07-30 09:00:00 13.8 13 Nordeste 21 Nordeste 0 -- -- 79
2019-07-30 08:00:00 12.1 6 Nordeste 17 Nordeste 0 -- -- 87
2019-07-30 07:00:00 11.1 11 Norte 18 Norte 0 -- -- 92
2019-07-30 06:00:00 11.1 4 Norte 13 Norte 0 -- -- 91
2019-07-30 05:00:00 11.2 6 Norte 10 Norte 0 -- -- 90
2019-07-30 04:00:00 12.1 4 Norte 14 Nordeste 0 -- -- 87
2019-07-30 03:00:00 12.5 8 Nordeste 16 Norte 0 -- -- 88
2019-07-30 02:00:00 13.1 7 Norte 17 Nordeste 0 -- -- 85
2019-07-30 01:00:00 13.8 10 Norte 23 Nordeste 0 -- -- 83
2019-07-30 00:00:00 14.5 15 Nordeste 26 Norte 0 -- -- 81
2019-07-29 23:00:00 15.3 17 Norte 33 Norte 0 -- -- 77
2019-07-29 22:00:00 18.5 23 Norte 40 Norte 0 -- -- 64
2019-07-29 21:00:00 23.2 10 Oeste 27 Oeste 0 -- -- 28
2019-07-29 20:00:00 25.6 13 Oeste 30 Oeste 0 -- -- 23
2019-07-29 19:00:00 26.1 18 Sudoeste 34 Sudoeste 0 -- -- 27
2019-07-29 18:00:00 26.8 19 Sudoeste 39 Sudoeste 0 -- -- 22
2019-07-29 17:00:00 26.5 18 Sudoeste 42 Sudoeste 0 -- -- 29
2019-07-29 16:00:00 25.8 19 Oeste 44 Sudoeste 0 -- -- 37
2019-07-29 15:00:00 25.5 17 Sudoeste 36 Sudoeste 0 -- -- 40
2019-07-29 14:00:00 24.3 19 Sudoeste 35 Sudoeste 0 -- -- 40
2019-07-29 13:00:00 23.3 14 Sudoeste 30 Sudoeste 0 -- -- 42
2019-07-29 12:00:00 21.5 17 Sudoeste 28 Sur 0 -- -- 39
2019-07-29 11:00:00 19.8 14 Sudoeste 24 Sudoeste 0 -- -- 39
2019-07-29 10:00:00 17.8 13 Sur 29 Sur 0 -- -- 43
2019-07-29 09:00:00 16.7 16 Sur 22 Sur 0 -- -- 52
2019-07-29 08:00:00 15.2 14 Sur 19 Sur 0 -- -- 55
2019-07-29 07:00:00 13.9 12 Sur 15 Sur 0 -- -- 58
2019-07-29 06:00:00 12.6 4 Sur 13 Sudeste 0 -- -- 64
2019-07-29 05:00:00 14.5 5 Sudeste 16 Sudeste 0 -- -- 54
2019-07-29 04:00:00 15.5 11 Sudeste 19 Sur 0 -- -- 50
2019-07-29 03:00:00 14 3 Sudeste 10 Sudeste 0 -- -- 57
2019-07-29 02:00:00 14.1 2 Sudeste 11 Sudeste 0 -- -- 64
2019-07-29 01:00:00 14.4 4 Sudeste 11 Este 0 -- -- 60
2019-07-29 00:00:00 16.3 2 Este 11 Este 0 -- -- 59
2019-07-28 23:00:00 19.4 4 Este 7 Nordeste 0 -- -- 48
2019-07-28 22:00:00 20.9 4 Nordeste 6 Norte 0 -- -- 42
2019-07-28 21:00:00 22.9 4 Norte 11 Noroeste 0 -- -- 38
2019-07-28 20:00:00 24.4 3 Norte 14 Noroeste 0 -- -- 33
2019-07-28 19:00:00 24.4 5 Noroeste 15 Noroeste 0 -- -- 33
2019-07-28 18:00:00 23.8 8 Noroeste 17 Norte 0 -- -- 34
2019-07-28 17:00:00 23 8 Norte 19 Norte 0 -- -- 37
2019-07-28 16:00:00 22.1 6 Noroeste 18 Noroeste 0 -- -- 41
2019-07-28 15:00:00 21 5 Noroeste 20 Norte 0 -- -- 46
2019-07-28 14:00:00 19.8 5 Oeste 19 Noroeste 0 -- -- 49
2019-07-28 13:00:00 18.9 6 Noroeste 26 Norte 0 -- -- 56
2019-07-28 12:00:00 17.5 12 Norte 23 Norte 0 -- -- 62
2019-07-28 11:00:00 16 10 Nordeste 24 Nordeste 0 -- -- 66
2019-07-28 10:00:00 14.2 15 Nordeste 24 Nordeste 0 -- -- 72
2019-07-28 09:00:00 12.6 6 Nordeste 10 Nordeste 0 -- -- 86
2019-07-28 08:00:00 9.8 5 Norte 9 Norte 0 -- -- 95
2019-07-28 07:00:00 9.3 0 Calma 13 Nordeste 0 -- -- 92
2019-07-28 06:00:00 10.1 7 Nordeste 15 Nordeste 0 -- -- 94
2019-07-28 05:00:00 9.9 4 Norte 9 Sudoeste 0 -- -- 94
2019-07-28 04:00:00 10 3 Sudoeste 8 Nordeste 0 -- -- 93
2019-07-28 03:00:00 10.4 7 Nordeste 12 Norte 0 -- -- 92
2019-07-28 02:00:00 11 2 Nordeste 20 Norte 0 -- -- 91
2019-07-28 01:00:00 11.4 5 Norte 26 Norte 0 -- -- 89
2019-07-28 00:00:00 12 15 Norte 37 Norte 0 -- -- 86
2019-07-27 23:00:00 12.5 21 Norte 34 Norte 0 -- -- 84
2019-07-26 12:00:00 20.8 5 Sur 17 Sur 0 -- -- 74
2019-07-26 11:00:00 18.9 9 Sur 13 Sur 0 -- -- 84
2019-07-26 10:00:00 18.5 2 Sudeste 14 Norte 0 -- -- 85
2019-07-26 09:00:00 17.8 8 Norte 12 Noroeste 0 -- -- 91
2019-07-26 08:00:00 17.2 5 Sudoeste 14 Nordeste 0 -- -- 91
2019-07-26 07:00:00 17.4 6 Este 19 Este 0 -- -- 89
2019-07-26 06:00:00 17.6 12 Norte 26 Oeste 1.2 -- -- 90
2019-07-26 05:00:00 18.9 13 Sudoeste 24 Nordeste 0 -- -- 81
2019-07-26 04:00:00 19.1 9 Nordeste 31 Nordeste 0 -- -- 79
2019-07-26 03:00:00 19.1 17 Nordeste 37 Nordeste 0 -- -- 80
2019-07-26 02:00:00 19.1 20 Nordeste 34 Nordeste 0 -- -- 83
2019-07-26 01:00:00 19.3 21 Nordeste 33 Norte 0 -- -- 82
2019-07-26 00:00:00 20.6 20 Norte 35 Norte 0 -- -- 77
2019-07-25 23:00:00 23.2 13 Norte 23 Norte 0 -- -- 64
2019-07-25 22:00:00 26.5 3 Noroeste 12 Oeste 0 -- -- 32
2019-07-25 21:00:00 29.2 7 Oeste 26 Oeste 0 -- -- 28
2019-07-25 20:00:00 31.4 14 Oeste 34 Oeste 0 -- -- 25
2019-07-25 19:00:00 31.3 17 Oeste 34 Noroeste 0 -- -- 25
2019-07-25 18:00:00 32.4 13 Sudoeste 38 Sudoeste 0 -- -- 22
2019-07-25 17:00:00 32.9 7 Sudoeste 38 Sudoeste 0 -- -- 24
2019-07-25 16:00:00 32.8 11 Sudoeste 30 Sur 0 -- -- 24
2019-07-25 15:00:00 31.3 17 Sudoeste 35 Sudoeste 0 -- -- 28
2019-07-25 14:00:00 31.3 18 Sudoeste 30 Sur 0 -- -- 30
2019-07-25 13:00:00 30.4 15 Sur 27 Sur 0 -- -- 31
2019-07-25 12:00:00 28.6 9 Sur 19 Sur 0 -- -- 34
2019-07-25 11:00:00 26.3 11 Sur 17 Sur 0 -- -- 38
2019-07-25 10:00:00 24.2 12 Sur 18 Sur 0 -- -- 43
2019-07-25 09:00:00 22.3 10 Sur 16 Sur 0 -- -- 47
2019-07-25 08:00:00 20.1 13 Sur 17 Sudeste 0 -- -- 51
2019-07-25 07:00:00 19.8 10 Sur 16 Sur 0 -- -- 51
2019-07-25 06:00:00 21.1 13 Sur 15 Sur 0 -- -- 45
2019-07-25 05:00:00 21 4 Sur 13 Sudeste 0 -- -- 47
2019-07-25 04:00:00 21.7 5 Sudeste 16 Sudeste 0 -- -- 46
2019-07-25 03:00:00 23.1 13 Sur 26 Sudeste 0 -- -- 43
2019-07-25 02:00:00 21.6 3 Este 7 Sudeste 0 -- -- 54
2019-07-25 01:00:00 23.2 4 Sur 10 Sur 0 -- -- 46
2019-07-25 00:00:00 23.6 4 Sudeste 14 Sur 0 -- -- 53
2019-07-24 23:00:00 25.7 4 Sur 11 Sudoeste 0 -- -- 40
2019-07-24 22:00:00 26.4 8 Sur 13 Sur 0 -- -- 43
2019-07-24 21:00:00 28.8 6 Sudeste 19 Nordeste 0 -- -- 37
2019-07-24 20:00:00 30.5 7 Este 15 Norte 0 -- -- 36
2019-07-24 19:00:00 28.1 8 Norte 26 Oeste 0 -- -- 39
2019-07-24 18:00:00 28.8 15 Sudoeste 37 Oeste 0.4 -- -- 39
2019-07-24 17:00:00 33.9 10 Sudoeste 39 Sur 0 -- -- 27
2019-07-24 16:00:00 33.2 10 Sur 33 Sudoeste 0 -- -- 28
2019-07-24 15:00:00 32.6 15 Sudoeste 34 Sur 0 -- -- 28
2019-07-24 14:00:00 32.3 15 Sudoeste 36 Sudoeste 0 -- -- 28
2019-07-24 13:00:00 30.9 12 Sudoeste 27 Sudoeste 0 -- -- 31
2019-07-24 12:00:00 29.8 12 Sur 23 Sur 0 -- -- 32
2019-07-24 11:00:00 28 12 Sur 20 Sudeste 0 -- -- 35
2019-07-24 10:00:00 25.8 12 Sur 20 Sur 0 -- -- 44
2019-07-24 09:00:00 21.9 6 Sudeste 12 Sudeste 0 -- -- 55
2019-07-24 08:00:00 17.7 3 Nordeste 6 Este 0 -- -- 76
2019-07-24 07:00:00 17.4 0 Calma 7 Norte 0 -- -- 75
2019-07-24 06:00:00 18.1 6 Este 9 Este 0 -- -- 69
2019-07-24 05:00:00 18.2 4 Este 12 Sudeste 0 -- -- 69
2019-07-24 04:00:00 19.1 4 Sudeste 20 Este 0 -- -- 67
2019-07-24 03:00:00 20 12 Este 26 Este 0 -- -- 60
2019-07-24 02:00:00 19.6 16 Este 25 Este 0 -- -- 66
2019-07-24 01:00:00 19.7 10 Norte 36 Noroeste 0 -- -- 68
2019-07-24 00:00:00 19.5 15 Noroeste 35 Sudoeste 0 -- -- 68
2019-07-23 23:00:00 22 18 Este 37 Sudeste 0 -- -- 56
2019-07-23 22:00:00 21.6 13 Nordeste 30 Norte 0.4 -- -- 67
2019-07-23 21:00:00 23.4 10 Norte 21 Noroeste 0 -- -- 62
2019-07-23 20:00:00 24.6 9 Este 39 Sudoeste 0 -- -- 52
2019-07-23 19:00:00 22.4 9 Norte 44 Sudoeste 3 -- -- 64
2019-07-23 18:00:00 32.2 23 Sudeste 37 Este 0 -- -- 26
2019-07-23 17:00:00 33.4 9 Sudoeste 20 Sudoeste 0 -- -- 26
2019-07-23 16:00:00 29.8 13 Sudoeste 43 Sudoeste 0 -- -- 31
2019-07-23 15:00:00 29.8 15 Sudoeste 49 Sur 0.2 -- -- 31
2019-07-23 14:00:00 31.2 21 Sur 36 Sur 0 -- -- 31
2019-07-23 13:00:00 29.5 27 Sur 38 Sur 0 -- -- 35
2019-07-23 12:00:00 26.4 19 Sudeste 31 Sudeste 0 -- -- 47
2019-07-23 11:00:00 22.4 10 Este 22 Este 0 -- -- 65
2019-07-23 10:00:00 19.9 7 Oeste 17 Sur 0 -- -- 70
2019-07-23 09:00:00 18.3 4 Sudoeste 35 Sudoeste 1.8 -- -- 81
2019-07-23 08:00:00 18 24 Sur 44 Sudoeste 4 -- -- 75
2019-07-23 07:00:00 20.6 10 Sudeste 18 Sudeste 0 -- -- 48
2019-07-23 06:00:00 20.2 13 Sudeste 23 Sudeste 0 -- -- 50
2019-07-23 05:00:00 18.8 3 Este 17 Este 0 -- -- 57
2019-07-23 04:00:00 18.7 3 Sudeste 7 Noroeste 0 -- -- 59
2019-07-23 03:00:00 19.6 3 Norte 13 Sudeste 0 -- -- 56
2019-07-23 02:00:00 21 3 Este 12 Este 0 -- -- 53
2019-07-23 01:00:00 22.6 6 Este 18 Nordeste 0 -- -- 50
2019-07-23 00:00:00 23 11 Norte 31 Norte 0 -- -- 50
2019-07-22 23:00:00 25.6 7 Nordeste 21 Nordeste 0 -- -- 36
2019-07-22 22:00:00 26.7 4 Noroeste 27 Oeste 0 -- -- 34
2019-07-22 21:00:00 29.2 13 Oeste 41 Sur 0 -- -- 30
2019-07-22 20:00:00 34.4 18 Sur 29 Sur 0 -- -- 20
2019-07-22 19:00:00 34 15 Sur 41 Sur 0 -- -- 19
2019-07-22 18:00:00 35.6 16 Sudeste 33 Sur 0 -- -- 19
2019-07-22 17:00:00 36.5 20 Sudeste 35 Sudeste 0 -- -- 18
2019-07-22 16:00:00 36.2 13 Sudeste 37 Sudeste 0 -- -- 19
2019-07-22 15:00:00 35.9 17 Sur 34 Sudeste 0 -- -- 20
2019-07-22 14:00:00 35.2 14 Sudeste 33 Sudeste 0 -- -- 22
2019-07-22 13:00:00 33.9 9 Sudeste 25 Sudeste 0 -- -- 23
2019-07-22 12:00:00 32 13 Sur 24 Sudeste 0 -- -- 25
2019-07-22 11:00:00 29.9 15 Sudeste 30 Sudeste 0 -- -- 28
2019-07-22 10:00:00 27.9 13 Sudeste 30 Sudeste 0 -- -- 32
2019-07-22 09:00:00 25.9 13 Sudeste 26 Sudeste 0 -- -- 37
2019-07-22 08:00:00 23.7 14 Sudeste 23 Este 0 -- -- 46
2019-07-22 07:00:00 22.6 8 Este 21 Sudeste 0 -- -- 51
2019-07-22 06:00:00 21.7 9 Este 17 Sudeste 0 -- -- 54
2019-07-22 05:00:00 19.7 2 Nordeste 11 Este 0 -- -- 72
2019-07-22 04:00:00 19.5 7 Nordeste 15 Nordeste 0 -- -- 76
2019-07-22 03:00:00 19.4 12 Nordeste 22 Nordeste 0 -- -- 79
2019-07-22 02:00:00 20 13 Nordeste 20 Nordeste 0 -- -- 77
2019-07-22 01:00:00 20.8 12 Nordeste 28 Nordeste 0 -- -- 74
2019-07-22 00:00:00 21.5 15 Nordeste 33 Nordeste 0 -- -- 72
2019-07-21 23:00:00 23.3 17 Nordeste 32 Nordeste 0 -- -- 67
2019-07-21 22:00:00 26 16 Nordeste 38 Nordeste 0 -- -- 58
2019-07-21 21:00:00 28.4 20 Nordeste 37 Nordeste 0 -- -- 49
2019-07-21 20:00:00 30.6 20 Nordeste 36 Nordeste 0 -- -- 40
2019-07-21 19:00:00 32 17 Nordeste 32 Norte 0 -- -- 34
2019-07-21 18:00:00 32.8 16 Norte 30 Norte 0 -- -- 32
2019-07-21 17:00:00 32.8 14 Norte 28 Norte 0 -- -- 33
2019-07-21 16:00:00 32.7 12 Norte 24 Nordeste 0 -- -- 34
2019-07-21 15:00:00 31 12 Norte 29 Norte 0 -- -- 39
2019-07-21 14:00:00 29.7 17 Norte 31 Nordeste 0 -- -- 45
2019-07-21 13:00:00 29.1 18 Norte 28 Norte 0 -- -- 46
2019-07-21 12:00:00 28.5 12 Norte 18 Norte 0 -- -- 47
2019-07-21 11:00:00 26.2 5 Sudoeste 12 Sudeste 0 -- -- 51
2019-07-21 10:00:00 22.2 8 Nordeste 19 Nordeste 0 -- -- 66
2019-07-21 09:00:00 18.7 12 Nordeste 22 Nordeste 0 -- -- 78
2019-07-21 08:00:00 16.9 10 Nordeste 21 Nordeste 0 -- -- 84
2019-07-21 07:00:00 16.4 14 Nordeste 23 Nordeste 0 -- -- 86
2019-07-21 06:00:00 16.4 11 Nordeste 20 Nordeste 0 -- -- 86
2019-07-21 05:00:00 16.6 12 Nordeste 26 Nordeste 0 -- -- 85
2019-07-21 04:00:00 16.6 16 Nordeste 30 Nordeste 0 -- -- 86
2019-07-21 03:00:00 16.7 17 Nordeste 36 Nordeste 0 -- -- 86
2019-07-21 02:00:00 17 19 Nordeste 38 Nordeste 0 -- -- 85
2019-07-21 01:00:00 17.7 19 Nordeste 36 Nordeste 0 -- -- 81
2019-07-21 00:00:00 18.3 21 Nordeste 39 Nordeste 0 -- -- 78